sensor_id;sensor_type;location;lat;lon;timestamp;pressure;altitude;pressure_sealevel;temperature;humidity
59103;BME280;43999;51.660;5.616;2023-02-15T00:01:24;102712.47;;;3.26;100.00
59103;BME280;43999;51.660;5.616;2023-02-15T00:03:54;102718.47;;;3.20;100.00
59103;BME280;43999;51.660;5.616;2023-02-15T00:06:25;102699.44;;;3.12;100.00
59103;BME280;43999;51.660;5.616;2023-02-15T00:09:02;102707.19;;;3.10;100.00
59103;BME280;43999;51.660;5.616;2023-02-15T00:11:34;102695.91;;;3.03;100.00
59103;BME280;43999;51.660;5.616;2023-02-15T00:14:22;102697.59;;;2.98;100.00
59103;BME280;43999;51.660;5.616;2023-02-15T00:16:55;102696.69;;;2.93;100.00
59103;BME280;43999;51.660;5.616;2023-02-15T00:19:30;102696.66;;;2.89;100.00
59103;BME280;43999;51.660;5.616;2023-02-15T00:22:01;102703.53;;;2.85;100.00
59103;BME280;43999;51.660;5.616;2023-02-15T00:24:31;102685.38;;;2.82;100.00
59103;BME280;43999;51.660;5.616;2023-02-15T00:27:01;102696.59;;;2.79;100.00
59103;BME280;43999;51.660;5.616;2023-02-15T00:29:28;102700.03;;;2.78;100.00
59103;BME280;43999;51.660;5.616;2023-02-15T00:32:04;102691.38;;;2.76;100.00
59103;BME280;43999;51.660;5.616;2023-02-15T00:34:33;102690.47;;;2.74;100.00
59103;BME280;43999;51.660;5.616;2023-02-15T00:37:09;102680.09;;;2.71;100.00
59103;BME280;43999;51.660;5.616;2023-02-15T00:39:37;102677.47;;;2.68;100.00
59103;BME280;43999;51.660;5.616;2023-02-15T00:42:13;102672.28;;;2.66;100.00
59103;BME280;43999;51.660;5.616;2023-02-15T00:45:06;102672.28;;;2.65;100.00
59103;BME280;43999;51.660;5.616;2023-02-15T00:47:45;102672.28;;;2.62;100.00
59103;BME280;43999;51.660;5.616;2023-02-15T00:50:16;102664.53;;;2.62;100.00
59103;BME280;43999;51.660;5.616;2023-02-15T00:52:45;102661.91;;;2.60;100.00
59103;BME280;43999;51.660;5.616;2023-02-15T00:55:14;102661.91;;;2.60;100.00
59103;BME280;43999;51.660;5.616;2023-02-15T00:57:48;102658.47;;;2.61;100.00
59103;BME280;43999;51.660;5.616;2023-02-15T01:00:16;102661.91;;;2.60;100.00
59103;BME280;43999;51.660;5.616;2023-02-15T01:02:45;102661.03;;;2.58;100.00
59103;BME280;43999;51.660;5.616;2023-02-15T01:05:14;102650.66;;;2.57;100.00
59103;BME280;43999;51.660;5.616;2023-02-15T01:07:44;102646.31;;;2.53;100.00
59103;BME280;43999;51.660;5.616;2023-02-15T01:10:15;102646.31;;;2.51;100.00
59103;BME280;43999;51.660;5.616;2023-02-15T01:12:52;102648.00;;;2.50;100.00
59103;BME280;43999;51.660;5.616;2023-02-15T01:15:24;102641.09;;;2.45;100.00
59103;BME280;43999;51.660;5.616;2023-02-15T01:17:53;102641.06;;;2.42;100.00
59103;BME280;43999;51.660;5.616;2023-02-15T01:20:27;102635.00;;;2.41;100.00
59103;BME280;43999;51.660;5.616;2023-02-15T01:22:58;102636.75;;;2.42;100.00
59103;BME280;43999;51.660;5.616;2023-02-15T01:25:28;102633.28;;;2.40;100.00
59103;BME280;43999;51.660;5.616;2023-02-15T01:27:56;102633.28;;;2.40;100.00
59103;BME280;43999;51.660;5.616;2023-02-15T01:30:27;102630.66;;;2.37;100.00
59103;BME280;43999;51.660;5.616;2023-02-15T01:32:59;102630.69;;;2.40;100.00
59103;BME280;43999;51.660;5.616;2023-02-15T01:35:30;102625.50;;;2.39;100.00
59103;BME280;43999;51.660;5.616;2023-02-15T01:38:00;102628.09;;;2.39;100.00
59103;BME280;43999;51.660;5.616;2023-02-15T01:40:38;102632.38;;;2.38;100.00
59103;BME280;43999;51.660;5.616;2023-02-15T01:43:17;102623.75;;;2.36;100.00
59103;BME280;43999;51.660;5.616;2023-02-15T01:45:47;102628.06;;;2.34;100.00
59103;BME280;43999;51.660;5.616;2023-02-15T01:48:25;102621.97;;;2.30;100.00
59103;BME280;43999;51.660;5.616;2023-02-15T01:51:10;102621.09;;;2.28;100.00
59103;BME280;43999;51.660;5.616;2023-02-15T01:53:51;102623.66;;;2.25;100.00
59103;BME280;43999;51.660;5.616;2023-02-15T01:56:36;102616.69;;;2.20;100.00
59103;BME280;43999;51.660;5.616;2023-02-15T01:59:14;102618.41;;;2.18;100.00
59103;BME280;43999;51.660;5.616;2023-02-15T02:01:52;102620.13;;;2.15;100.00
59103;BME280;43999;51.660;5.616;2023-02-15T02:04:41;102620.09;;;2.12;100.00
59103;BME280;43999;51.660;5.616;2023-02-15T02:07:23;102620.91;;;2.10;100.00
59103;BME280;43999;51.660;5.616;2023-02-15T02:10:03;102607.09;;;2.08;100.00
59103;BME280;43999;51.660;5.616;2023-02-15T02:12:38;102608.81;;;2.07;100.00
59103;BME280;43999;51.660;5.616;2023-02-15T02:15:12;102607.06;;;2.05;100.00
59103;BME280;43999;51.660;5.616;2023-02-15T02:18:12;102590.66;;;2.03;100.00
59103;BME280;43999;51.660;5.616;2023-02-15T02:22:03;102600.09;;;1.99;100.00
59103;BME280;43999;51.660;5.616;2023-02-15T02:37:24;102593.84;;;1.75;100.00
59103;BME280;43999;51.660;5.616;2023-02-15T02:40:25;102594.66;;;1.73;100.00
59103;BME280;43999;51.660;5.616;2023-02-15T02:43:46;102590.25;;;1.66;100.00
59103;BME280;43999;51.660;5.616;2023-02-15T02:46:54;102582.44;;;1.59;100.00
59103;BME280;43999;51.660;5.616;2023-02-15T02:49:42;102579.84;;;1.59;100.00
59103;BME280;43999;51.660;5.616;2023-02-15T02:55:22;102566.84;;;1.52;100.00
59103;BME280;43999;51.660;5.616;2023-02-15T02:57:53;102566.84;;;1.52;100.00
59103;BME280;43999;51.660;5.616;2023-02-15T03:00:34;102565.97;;;1.48;100.00
59103;BME280;43999;51.660;5.616;2023-02-15T03:03:20;102565.94;;;1.47;100.00
59103;BME280;43999;51.660;5.616;2023-02-15T03:05:58;102555.59;;;1.45;100.00
59103;BME280;43999;51.660;5.616;2023-02-15T03:08:42;102565.06;;;1.45;100.00
59103;BME280;43999;51.660;5.616;2023-02-15T03:11:28;102565.88;;;1.42;100.00
59103;BME280;43999;51.660;5.616;2023-02-15T03:13:59;102558.97;;;1.41;100.00
59103;BME280;43999;51.660;5.616;2023-02-15T03:16:31;102560.72;;;1.42;100.00
59103;BME280;43999;51.660;5.616;2023-02-15T03:19:19;102554.69;;;1.41;100.00
59103;BME280;43999;51.660;5.616;2023-02-15T03:22:03;102545.19;;;1.39;100.00
59103;BME280;43999;51.660;5.616;2023-02-15T03:27:54;102533.06;;;1.35;100.00
59103;BME280;43999;51.660;5.616;2023-02-15T03:30:29;102540.81;;;1.35;100.00
59103;BME280;43999;51.660;5.616;2023-02-15T03:33:00;102545.97;;;1.35;100.00
59103;BME280;43999;51.660;5.616;2023-02-15T03:39:10;102527.06;;;1.36;100.00
59103;BME280;43999;51.660;5.616;2023-02-15T03:45:03;102528.78;;;1.34;100.00
59103;BME280;43999;51.660;5.616;2023-02-15T03:47:36;102516.69;;;1.33;100.00
59103;BME280;43999;51.660;5.616;2023-02-15T03:50:26;102518.44;;;1.32;100.00
59103;BME280;43999;51.660;5.616;2023-02-15T03:53:19;102518.38;;;1.29;100.00
59103;BME280;43999;51.660;5.616;2023-02-15T03:55:54;102515.78;;;1.26;100.00
59103;BME280;43999;51.660;5.616;2023-02-15T03:58:23;102526.03;;;1.21;100.00
59103;BME280;43999;51.660;5.616;2023-02-15T04:01:47;102517.38;;;1.15;100.00
59103;BME280;43999;51.660;5.616;2023-02-15T04:04:38;102513.84;;;1.11;100.00
59103;BME280;43999;51.660;5.616;2023-02-15T04:07:13;102518.19;;;1.12;100.00
59103;BME280;43999;51.660;5.616;2023-02-15T04:09:40;102509.53;;;1.09;100.00
59103;BME280;43999;51.660;5.616;2023-02-15T04:12:27;102513.00;;;1.11;100.00
59103;BME280;43999;51.660;5.616;2023-02-15T04:14:54;102519.84;;;1.05;100.00
59103;BME280;43999;51.660;5.616;2023-02-15T04:17:41;102514.66;;;1.05;100.00
59103;BME280;43999;51.660;5.616;2023-02-15T04:20:09;102518.13;;;1.07;100.00
59103;BME280;43999;51.660;5.616;2023-02-15T04:22:59;102518.97;;;1.06;100.00
59103;BME280;43999;51.660;5.616;2023-02-15T04:25:46;102523.22;;;1.03;100.00
59103;BME280;43999;51.660;5.616;2023-02-15T04:28:20;102529.22;;;1.00;100.00
59103;BME280;43999;51.660;5.616;2023-02-15T04:30:50;102516.19;;;0.93;100.00
59103;BME280;43999;51.660;5.616;2023-02-15T04:33:28;102524.78;;;0.90;100.00
59103;BME280;43999;51.660;5.616;2023-02-15T04:35:56;102525.59;;;0.87;100.00
59103;BME280;43999;51.660;5.616;2023-02-15T04:38:24;102522.13;;;0.84;100.00
59103;BME280;43999;51.660;5.616;2023-02-15T04:40:52;102515.16;;;0.78;100.00
59103;BME280;43999;51.660;5.616;2023-02-15T04:43:27;102511.75;;;0.81;100.00
59103;BME280;43999;51.660;5.616;2023-02-15T04:45:59;102514.38;;;0.84;100.00
59103;BME280;43999;51.660;5.616;2023-02-15T04:48:35;102503.25;;;0.89;100.00
59103;BME280;43999;51.660;5.616;2023-02-15T04:51:14;102507.59;;;0.91;100.00
59103;BME280;43999;51.660;5.616;2023-02-15T04:53:44;102506.75;;;0.92;100.00
59103;BME280;43999;51.660;5.616;2023-02-15T04:56:20;102502.47;;;0.94;100.00
59103;BME280;43999;51.660;5.616;2023-02-15T04:58:48;102496.44;;;0.92;100.00
59103;BME280;43999;51.660;5.616;2023-02-15T05:01:21;102493.81;;;0.88;100.00
59103;BME280;43999;51.660;5.616;2023-02-15T05:03:49;102492.94;;;0.91;100.00
59103;BME280;43999;51.660;5.616;2023-02-15T05:06:25;102487.84;;;0.94;100.00
59103;BME280;43999;51.660;5.616;2023-02-15T05:08:53;102492.09;;;0.91;100.00
59103;BME280;43999;51.660;5.616;2023-02-15T05:11:27;102494.63;;;0.86;100.00
59103;BME280;43999;51.660;5.616;2023-02-15T05:13:56;102492.03;;;0.86;100.00
59103;BME280;43999;51.660;5.616;2023-02-15T05:16:24;102484.28;;;0.86;100.00
59103;BME280;43999;51.660;5.616;2023-02-15T05:18:56;102479.09;;;0.83;100.00
59103;BME280;43999;51.660;5.616;2023-02-15T05:21:24;102481.69;;;0.83;100.00
59103;BME280;43999;51.660;5.616;2023-02-15T05:23:59;102483.41;;;0.82;100.00
59103;BME280;43999;51.660;5.616;2023-02-15T05:26:33;102476.50;;;0.83;100.00
59103;BME280;43999;51.660;5.616;2023-02-15T05:29:21;102479.13;;;0.84;100.00
59103;BME280;43999;51.660;5.616;2023-02-15T05:31:51;102476.50;;;0.81;100.00
59103;BME280;43999;51.660;5.616;2023-02-15T05:34:19;102477.28;;;0.76;100.00
59103;BME280;43999;51.660;5.616;2023-02-15T05:36:49;102478.16;;;0.76;100.00
59103;BME280;43999;51.660;5.616;2023-02-15T05:39:17;102478.13;;;0.75;100.00
59103;BME280;43999;51.660;5.616;2023-02-15T05:41:49;102479.81;;;0.73;100.00
59103;BME280;43999;51.660;5.616;2023-02-15T05:44:24;102485.84;;;0.71;100.00
59103;BME280;43999;51.660;5.616;2023-02-15T05:47:29;102477.19;;;0.69;100.00
59103;BME280;43999;51.660;5.616;2023-02-15T05:50:31;102479.75;;;0.69;100.00
59103;BME280;43999;51.660;5.616;2023-02-15T05:53:13;102478.91;;;0.69;100.00
59103;BME280;43999;51.660;5.616;2023-02-15T05:55:43;102490.94;;;0.67;100.00
59103;BME280;43999;51.660;5.616;2023-02-15T05:58:17;102478.84;;;0.64;100.00
59103;BME280;43999;51.660;5.616;2023-02-15T06:00:52;102493.50;;;0.65;100.00
59103;BME280;43999;51.660;5.616;2023-02-15T06:03:23;102484.00;;;0.64;100.00
59103;BME280;43999;51.660;5.616;2023-02-15T06:05:53;102490.03;;;0.65;100.00
59103;BME280;43999;51.660;5.616;2023-02-15T06:08:32;102487.44;;;0.65;100.00
59103;BME280;43999;51.660;5.616;2023-02-15T06:11:03;102481.44;;;0.66;100.00
59103;BME280;43999;51.660;5.616;2023-02-15T06:13:35;102484.88;;;0.65;100.00
59103;BME280;43999;51.660;5.616;2023-02-15T06:16:06;102486.59;;;0.64;100.00
59103;BME280;43999;51.660;5.616;2023-02-15T06:18:41;102483.94;;;0.60;100.00
59103;BME280;43999;51.660;5.616;2023-02-15T06:21:09;102491.69;;;0.60;100.00
59103;BME280;43999;51.660;5.616;2023-02-15T06:23:39;102489.91;;;0.57;100.00
59103;BME280;43999;51.660;5.616;2023-02-15T06:26:19;102490.75;;;0.55;100.00
59103;BME280;43999;51.660;5.616;2023-02-15T06:28:50;102482.13;;;0.54;100.00
59103;BME280;43999;51.660;5.616;2023-02-15T06:31:21;102484.69;;;0.52;100.00
59103;BME280;43999;51.660;5.616;2023-02-15T06:33:58;102482.16;;;0.56;100.00
59103;BME280;43999;51.660;5.616;2023-02-15T06:36:32;102483.00;;;0.53;100.00
59103;BME280;43999;51.660;5.616;2023-02-15T06:39:00;102487.28;;;0.52;100.00
59103;BME280;43999;51.660;5.616;2023-02-15T06:41:42;102482.13;;;0.52;100.00
59103;BME280;43999;51.660;5.616;2023-02-15T06:44:17;102482.13;;;0.52;100.00
59103;BME280;43999;51.660;5.616;2023-02-15T06:46:45;102482.13;;;0.54;100.00
59103;BME280;43999;51.660;5.616;2023-02-15T06:49:29;102487.31;;;0.56;100.00
59103;BME280;43999;51.660;5.616;2023-02-15T06:52:03;102479.56;;;0.54;100.00
59103;BME280;43999;51.660;5.616;2023-02-15T06:54:33;102476.06;;;0.50;100.00
59103;BME280;43999;51.660;5.616;2023-02-15T06:57:01;102478.63;;;0.49;100.00
59103;BME280;43999;51.660;5.616;2023-02-15T06:59:31;102477.78;;;0.48;100.00
59103;BME280;43999;51.660;5.616;2023-02-15T07:02:00;102478.63;;;0.49;100.00
59103;BME280;43999;51.660;5.616;2023-02-15T07:04:35;102478.63;;;0.49;100.00
59103;BME280;43999;51.660;5.616;2023-02-15T07:07:03;102476.94;;;0.51;100.00
59103;BME280;43999;51.660;5.616;2023-02-15T07:09:35;102476.97;;;0.54;100.00
59103;BME280;43999;51.660;5.616;2023-02-15T07:12:12;102469.28;;;0.57;100.00
59103;BME280;43999;51.660;5.616;2023-02-15T07:14:58;102459.84;;;0.58;100.00
59103;BME280;43999;51.660;5.616;2023-02-15T07:17:28;102465.03;;;0.59;100.00
59103;BME280;43999;51.660;5.616;2023-02-15T07:20:14;102456.44;;;0.62;100.00
59103;BME280;43999;51.660;5.616;2023-02-15T07:22:51;102460.88;;;0.70;100.00
59103;BME280;43999;51.660;5.616;2023-02-15T07:25:20;102460.06;;;0.73;100.00
59103;BME280;43999;51.660;5.616;2023-02-15T07:27:57;102451.50;;;0.79;100.00
59103;BME280;43999;51.660;5.616;2023-02-15T07:30:26;102445.59;;;0.86;100.00
59103;BME280;43999;51.660;5.616;2023-02-15T07:32:59;102456.03;;;0.95;100.00
59103;BME280;43999;51.660;5.616;2023-02-15T07:35:57;102456.06;;;0.98;100.00
59103;BME280;43999;51.660;5.616;2023-02-15T07:38:37;102455.19;;;0.96;100.00
59103;BME280;43999;51.660;5.616;2023-02-15T07:41:27;102452.56;;;0.93;100.00
59103;BME280;43999;51.660;5.616;2023-02-15T07:44:15;102459.44;;;0.94;100.00
59103;BME280;43999;51.660;5.616;2023-02-15T07:46:47;102447.47;;;0.98;100.00
59103;BME280;43999;51.660;5.616;2023-02-15T07:49:19;102452.66;;;1.01;100.00
59103;BME280;43999;51.660;5.616;2023-02-15T07:51:54;102448.34;;;1.01;100.00
59103;BME280;43999;51.660;5.616;2023-02-15T07:54:23;102445.78;;;1.03;100.00
59103;BME280;43999;51.660;5.616;2023-02-15T07:57:00;102450.94;;;1.03;100.00
59103;BME280;43999;51.660;5.616;2023-02-15T07:59:53;102444.97;;;1.05;100.00
59103;BME280;43999;51.660;5.616;2023-02-15T08:02:20;102439.84;;;1.09;100.00
59103;BME280;43999;51.660;5.616;2023-02-15T08:04:48;102441.56;;;1.11;100.00
59103;BME280;43999;51.660;5.616;2023-02-15T08:07:22;102439.88;;;1.12;100.00
59103;BME280;43999;51.660;5.616;2023-02-15T08:09:51;102435.63;;;1.18;100.00
59103;BME280;43999;51.660;5.616;2023-02-15T08:12:28;102438.28;;;1.26;100.00
59103;BME280;43999;51.660;5.616;2023-02-15T08:14:56;102428.00;;;1.29;100.00
59103;BME280;43999;51.660;5.616;2023-02-15T08:17:26;102431.47;;;1.33;100.00
59103;BME280;43999;51.660;5.616;2023-02-15T08:19:58;102430.69;;;1.38;100.00
59103;BME280;43999;51.660;5.616;2023-02-15T08:22:37;102425.53;;;1.41;100.00
59103;BME280;43999;51.660;5.616;2023-02-15T08:25:05;102427.28;;;1.46;100.00
59103;BME280;43999;51.660;5.616;2023-02-15T08:27:42;102424.72;;;1.49;100.00
59103;BME280;43999;51.660;5.616;2023-02-15T08:30:18;102423.06;;;1.54;100.00
59103;BME280;43999;51.660;5.616;2023-02-15T08:32:49;102424.81;;;1.58;100.00
59103;BME280;43999;51.660;5.616;2023-02-15T08:35:20;102424.00;;;1.62;100.00
59103;BME280;43999;51.660;5.616;2023-02-15T08:37:52;102424.06;;;1.68;100.00
59103;BME280;43999;51.660;5.616;2023-02-15T08:40:24;102424.09;;;1.74;100.00
59103;BME280;43999;51.660;5.616;2023-02-15T08:43:04;102425.88;;;1.80;100.00
59103;BME280;43999;51.660;5.616;2023-02-15T08:45:35;102419.88;;;1.86;100.00
59103;BME280;43999;51.660;5.616;2023-02-15T08:48:06;102404.41;;;1.92;100.00
59103;BME280;43999;51.660;5.616;2023-02-15T08:50:46;102407.94;;;2.00;100.00
59103;BME280;43999;51.660;5.616;2023-02-15T08:53:17;102404.50;;;2.06;100.00
59103;BME280;43999;51.660;5.616;2023-02-15T08:56:01;102411.47;;;2.14;100.00
59103;BME280;43999;51.660;5.616;2023-02-15T08:58:45;102409.81;;;2.24;100.00
59103;BME280;43999;51.660;5.616;2023-02-15T09:01:25;102406.41;;;2.33;100.00
59103;BME280;43999;51.660;5.616;2023-02-15T09:04:05;102405.59;;;2.39;100.00
59103;BME280;43999;51.660;5.616;2023-02-15T09:06:47;102404.75;;;2.49;100.00
59103;BME280;43999;51.660;5.616;2023-02-15T09:09:33;102402.22;;;2.55;100.00
59103;BME280;43999;51.660;5.616;2023-02-15T09:12:01;102403.97;;;2.64;100.00
59103;BME280;43999;51.660;5.616;2023-02-15T09:14:32;102410.03;;;2.72;100.00
59103;BME280;43999;51.660;5.616;2023-02-15T09:16:59;102397.13;;;2.75;100.00
59103;BME280;43999;51.660;5.616;2023-02-15T09:19:29;102398.00;;;2.85;100.00
59103;BME280;43999;51.660;5.616;2023-02-15T09:22:06;102404.94;;;2.94;100.00
59103;BME280;43999;51.660;5.616;2023-02-15T09:24:58;102402.38;;;3.03;100.00
59103;BME280;43999;51.660;5.616;2023-02-15T09:27:26;102404.97;;;3.08;100.00
59103;BME280;43999;51.660;5.616;2023-02-15T09:29:55;102395.50;;;3.14;100.00
59103;BME280;43999;51.660;5.616;2023-02-15T09:32:35;102396.38;;;3.22;100.00
59103;BME280;43999;51.660;5.616;2023-02-15T09:35:05;102405.88;;;3.31;100.00
59103;BME280;43999;51.660;5.616;2023-02-15T09:37:36;102395.53;;;3.39;100.00
59103;BME280;43999;51.660;5.616;2023-02-15T09:40:06;102390.34;;;3.44;100.00
59103;BME280;43999;51.660;5.616;2023-02-15T09:46:10;102390.34;;;3.61;100.00
59103;BME280;43999;51.660;5.616;2023-02-15T09:50:15;102386.06;;;3.75;100.00
59103;BME280;43999;51.660;5.616;2023-02-15T10:19:14;102386.53;;;5.00;100.00
59103;BME280;43999;51.660;5.616;2023-02-15T10:31:50;102399.88;;;5.70;100.00
59103;BME280;43999;51.660;5.616;2023-02-15T10:35:03;102394.56;;;5.84;100.00
59103;BME280;43999;51.660;5.616;2023-02-15T10:38:27;102389.97;;;6.13;100.00
59103;BME280;43999;51.660;5.616;2023-02-15T10:41:56;102386.94;;;6.53;100.00
59103;BME280;43999;51.660;5.616;2023-02-15T10:48:55;102392.19;;;8.18;100.00
59103;BME280;43999;51.660;5.616;2023-02-15T10:55:20;102384.41;;;9.74;100.00
59103;BME280;43999;51.660;5.616;2023-02-15T11:02:53;102376.00;;;10.60;97.06
59103;BME280;43999;51.660;5.616;2023-02-15T11:08:14;102368.28;;;11.40;97.15
59103;BME280;43999;51.660;5.616;2023-02-15T11:11:01;102359.47;;;11.68;95.99
59103;BME280;43999;51.660;5.616;2023-02-15T11:13:45;102367.34;;;11.95;90.92
59103;BME280;43999;51.660;5.616;2023-02-15T11:16:39;102361.03;;;11.99;92.73
59103;BME280;43999;51.660;5.616;2023-02-15T11:19:47;102361.25;;;12.18;90.80
59103;BME280;43999;51.660;5.616;2023-02-15T11:22:38;102361.53;;;12.34;87.04
59103;BME280;43999;51.660;5.616;2023-02-15T11:25:25;102360.47;;;12.40;82.21
59103;BME280;43999;51.660;5.616;2023-02-15T11:28:36;102358.06;;;12.33;83.63
59103;BME280;43999;51.660;5.616;2023-02-15T11:31:47;102357.78;;;12.41;85.38
59103;BME280;43999;51.660;5.616;2023-02-15T11:38:18;102341.19;;;12.39;82.99
59103;BME280;43999;51.660;5.616;2023-02-15T11:41:11;102334.41;;;12.33;79.15
59103;BME280;43999;51.660;5.616;2023-02-15T11:44:27;102329.28;;;12.30;80.31
59103;BME280;43999;51.660;5.616;2023-02-15T11:47:16;102319.59;;;12.31;80.30
59103;BME280;43999;51.660;5.616;2023-02-15T11:49:46;102323.03;;;12.33;78.81
59103;BME280;43999;51.660;5.616;2023-02-15T11:52:24;102311.78;;;12.29;78.59
59103;BME280;43999;51.660;5.616;2023-02-15T11:54:54;102315.19;;;12.31;81.62
59103;BME280;43999;51.660;5.616;2023-02-15T11:57:45;102309.34;;;12.47;80.94
59103;BME280;43999;51.660;5.616;2023-02-15T12:00:44;102294.75;;;12.62;79.75
59103;BME280;43999;51.660;5.616;2023-02-15T12:03:47;102297.88;;;12.71;78.21
59103;BME280;43999;51.660;5.616;2023-02-15T12:07:00;102293.91;;;12.83;78.15
59103;BME280;43999;51.660;5.616;2023-02-15T12:10:03;102288.94;;;12.98;77.56
59103;BME280;43999;51.660;5.616;2023-02-15T12:16:07;102285.16;;;13.25;77.24
59103;BME280;43999;51.660;5.616;2023-02-15T12:19:02;102281.38;;;13.33;75.05
59103;BME280;43999;51.660;5.616;2023-02-15T12:21:41;102280.94;;;13.43;75.67
59103;BME280;43999;51.660;5.616;2023-02-15T12:24:27;102273.94;;;13.63;76.46
59103;BME280;43999;51.660;5.616;2023-02-15T12:27:16;102281.50;;;13.91;75.43
59103;BME280;43999;51.660;5.616;2023-02-15T12:29:57;102280.78;;;14.07;73.84
59103;BME280;43999;51.660;5.616;2023-02-15T12:32:56;102278.38;;;14.21;69.52
59103;BME280;43999;51.660;5.616;2023-02-15T12:35:36;102282.16;;;14.34;70.53
59103;BME280;43999;51.660;5.616;2023-02-15T12:40:38;102274.06;;;14.57;70.11
59103;BME280;43999;51.660;5.616;2023-02-15T12:43:27;102275.66;;;14.61;64.18
59103;BME280;43999;51.660;5.616;2023-02-15T12:46:26;102261.81;;;14.56;67.16
59103;BME280;43999;51.660;5.616;2023-02-15T12:49:19;102256.91;;;14.48;66.45
59103;BME280;43999;51.660;5.616;2023-02-15T12:52:03;102248.59;;;14.38;67.00
59103;BME280;43999;51.660;5.616;2023-02-15T12:54:51;102245.31;;;14.33;65.52
59103;BME280;43999;51.660;5.616;2023-02-15T12:57:34;102242.16;;;14.25;64.29
59103;BME280;43999;51.660;5.616;2023-02-15T13:03:17;102236.03;;;14.24;64.07
59103;BME280;43999;51.660;5.616;2023-02-15T13:06:46;102237.84;;;14.24;63.20
59103;BME280;43999;51.660;5.616;2023-02-15T13:12:41;102240.38;;;14.44;62.40
59103;BME280;43999;51.660;5.616;2023-02-15T13:15:48;102230.88;;;14.40;64.01
59103;BME280;43999;51.660;5.616;2023-02-15T13:18:45;102221.91;;;14.44;65.65
59103;BME280;43999;51.660;5.616;2023-02-15T13:21:27;102225.53;;;14.61;66.06
59103;BME280;43999;51.660;5.616;2023-02-15T13:27:15;102220.75;;;14.86;64.45
59103;BME280;43999;51.660;5.616;2023-02-15T13:30:35;102222.09;;;14.95;62.17
59103;BME280;43999;51.660;5.616;2023-02-15T13:33:53;102223.31;;;15.05;62.36
59103;BME280;43999;51.660;5.616;2023-02-15T13:37:21;102210.19;;;15.04;60.36
59103;BME280;43999;51.660;5.616;2023-02-15T13:40:33;102207.94;;;14.96;60.00
59103;BME280;43999;51.660;5.616;2023-02-15T13:46:52;102201.25;;;14.72;60.24
59103;BME280;43999;51.660;5.616;2023-02-15T14:01:28;102180.28;;;14.14;64.16
59103;BME280;43999;51.660;5.616;2023-02-15T14:07:55;102182.97;;;13.94;63.66
59103;BME280;43999;51.660;5.616;2023-02-15T14:20:08;102195.00;;;14.19;65.31
59103;BME280;43999;51.660;5.616;2023-02-15T14:24:09;102196.00;;;14.35;65.13
59103;BME280;43999;51.660;5.616;2023-02-15T14:27:41;102192.44;;;14.36;63.98
59103;BME280;43999;51.660;5.616;2023-02-15T14:30:43;102192.81;;;14.28;65.40
59103;BME280;43999;51.660;5.616;2023-02-15T14:33:38;102193.16;;;14.21;65.65
59103;BME280;43999;51.660;5.616;2023-02-15T14:36:18;102201.50;;;14.11;66.03
59103;BME280;43999;51.660;5.616;2023-02-15T14:39:38;102196.75;;;14.01;66.49
59103;BME280;43999;51.660;5.616;2023-02-15T14:42:56;102202.72;;;13.85;67.42
59103;BME280;43999;51.660;5.616;2023-02-15T14:45:45;102209.41;;;13.73;67.95
59103;BME280;43999;51.660;5.616;2023-02-15T14:48:35;102206.41;;;13.62;68.35
59103;BME280;43999;51.660;5.616;2023-02-15T14:59:56;102208.53;;;13.33;70.91
59103;BME280;43999;51.660;5.616;2023-02-15T15:02:48;102208.84;;;13.25;70.55
59103;BME280;43999;51.660;5.616;2023-02-15T15:05:52;102201.41;;;13.15;70.21
59103;BME280;43999;51.660;5.616;2023-02-15T15:08:38;102201.13;;;13.00;70.89
59103;BME280;43999;51.660;5.616;2023-02-15T15:14:50;102202.56;;;12.87;72.09
59103;BME280;43999;51.660;5.616;2023-02-15T15:20:49;102204.13;;;12.70;73.24
59103;BME280;43999;51.660;5.616;2023-02-15T15:23:43;102202.66;;;12.63;72.97
59103;BME280;43999;51.660;5.616;2023-02-15T15:26:34;102189.84;;;12.55;73.44
59103;BME280;43999;51.660;5.616;2023-02-15T15:29:08;102200.53;;;12.51;74.12
59103;BME280;43999;51.660;5.616;2023-02-15T15:31:59;102199.88;;;12.46;73.69
59103;BME280;43999;51.660;5.616;2023-02-15T15:50:16;102182.53;;;11.96;74.78
59103;BME280;43999;51.660;5.616;2023-02-15T15:52:57;102188.91;;;11.89;74.98
59103;BME280;43999;51.660;5.616;2023-02-15T15:55:32;102172.66;;;11.79;76.33
59103;BME280;43999;51.660;5.616;2023-02-15T15:58:05;102179.81;;;11.74;76.21
59103;BME280;43999;51.660;5.616;2023-02-15T16:01:08;102187.88;;;11.69;76.71
59103;BME280;43999;51.660;5.616;2023-02-15T16:03:54;102186.47;;;11.60;77.75
59103;BME280;43999;51.660;5.616;2023-02-15T16:06:40;102188.38;;;11.55;77.91
59103;BME280;43999;51.660;5.616;2023-02-15T16:09:25;102185.91;;;11.51;78.03
59103;BME280;43999;51.660;5.616;2023-02-15T16:12:03;102183.56;;;11.43;79.04
59103;BME280;43999;51.660;5.616;2023-02-15T16:15:22;102191.59;;;11.38;79.26
59103;BME280;43999;51.660;5.616;2023-02-15T16:17:57;102186.56;;;11.32;79.99
59103;BME280;43999;51.660;5.616;2023-02-15T16:20:36;102188.56;;;11.25;79.65
59103;BME280;43999;51.660;5.616;2023-02-15T16:29:44;102177.09;;;11.03;82.02
59103;BME280;43999;51.660;5.616;2023-02-15T16:32:25;102176.34;;;10.99;82.47
59103;BME280;43999;51.660;5.616;2023-02-15T16:35:15;102172.13;;;10.95;82.92
59103;BME280;43999;51.660;5.616;2023-02-15T16:37:50;102175.00;;;10.87;83.37
59103;BME280;43999;51.660;5.616;2023-02-15T16:43:02;102185.84;;;10.76;84.23
59103;BME280;43999;51.660;5.616;2023-02-15T16:45:35;102186.03;;;10.70;84.23
59103;BME280;43999;51.660;5.616;2023-02-15T16:48:20;102184.56;;;10.63;84.62
59103;BME280;43999;51.660;5.616;2023-02-15T16:50:58;102188.22;;;10.57;84.40
59103;BME280;43999;51.660;5.616;2023-02-15T16:53:37;102195.38;;;10.52;85.00